Main page
METAR-TAF:

METAR-TAF

Airports :

Ilam, Iran

Ilam Airport

latitude: 33-35-09N, longitude: 046-24-20E, elevation: 1334 m

Current weather observation

The report was made 20 minutes ago, at 20:00 UTC
Wind 8 kt from the East/Southeast
Temperature 6°C
Humidity 49%
Pressure 1027 hPa
Visibility 10 km or more
no clouds below 1500 m and no cumulonimbus

METAR: OICI 182000Z 11008KT CAVOK 06/M04 Q1027 A3034

Time: 23:50 (20:20 UTC)

Forecast

The report was made 2 hours and 50 minutes ago, at 17:30 UTC
Forecast valid from 18 at 18 UTC to 19 at 24 UTC
Wind 8 kt from the South/Southeast
Visibility: 8000 m
Few clouds at a height of 4000 ft
Temporary
from 19 at 09 UTC to 19 at 12 UTC
Wind 16 kt from the West/Northwest
Few clouds at a height of 3500 ft, Towering cumulus.
Scattered clouds at a height of 4000 ft
Scattered clouds at a height of 10000 ft

TAF: OICI 181730Z 1818/1924 16004MPS 8000 FEW040 TEMPO 1909/1912 30008MPS FEW035TCU SCT040 SCT100

Weather observations and forecasts of more than 4000 airports (METAR and TAF reports).

The available stations are represented by yellow and red dots on the map.

Hover mouse over dot to see the name of the station.

Then click to see weather observations and forecasts.

To change the map : click on the green buttons with a black cross to zoom in, on the green button with a dash to zoom out, or on the green arrows for adjacent maps.


METAR-TAF: